createdAt,value
2019-05-29T00:00:10.423Z,99.90
2019-05-29T00:02:39.447Z,99.90
2019-05-29T00:05:08.680Z,99.90
2019-05-29T00:07:37.560Z,99.90
2019-05-29T00:10:10.476Z,99.90
2019-05-29T00:12:39.520Z,99.90
2019-05-29T00:15:08.560Z,99.90
2019-05-29T00:17:37.501Z,99.90
2019-05-29T00:20:08.290Z,99.90
2019-05-29T00:22:37.160Z,99.90
2019-05-29T00:25:08.526Z,99.90
2019-05-29T00:27:37.580Z,99.90
2019-05-29T00:30:08.557Z,99.90
2019-05-29T00:32:37.964Z,99.90
2019-05-29T00:35:08.540Z,99.90
2019-05-29T00:37:37.460Z,99.90
2019-05-29T00:40:08.880Z,99.90
2019-05-29T00:42:38.120Z,99.90
2019-05-29T00:45:09.562Z,99.90
2019-05-29T00:47:38.665Z,99.90
2019-05-29T00:50:08.143Z,99.90
2019-05-29T00:52:37.228Z,99.90
2019-05-29T00:55:06.860Z,99.90
2019-05-29T00:57:35.762Z,99.90
2019-05-29T01:00:07.263Z,99.90
2019-05-29T01:02:36.164Z,99.90
2019-05-29T01:05:06.601Z,99.90
2019-05-29T01:07:35.481Z,99.90
2019-05-29T01:10:07.000Z,99.90
2019-05-29T01:12:35.912Z,99.90
2019-05-29T01:15:07.161Z,99.90
2019-05-29T01:17:36.060Z,99.90
2019-05-29T01:20:07.009Z,99.90
2019-05-29T01:22:36.021Z,99.90
2019-05-29T01:25:06.402Z,99.90
2019-05-29T01:27:35.321Z,99.90
2019-05-29T01:30:06.320Z,99.90
2019-05-29T01:32:35.228Z,99.90
2019-05-29T01:35:05.961Z,99.90
2019-05-29T01:37:34.889Z,99.90
2019-05-29T01:40:18.786Z,99.90
2019-05-29T01:42:35.380Z,99.90
2019-05-29T01:45:08.246Z,99.90
2019-05-29T01:47:36.180Z,99.90
2019-05-29T01:50:06.560Z,99.90
2019-05-29T01:52:35.440Z,99.90
2019-05-29T01:55:06.712Z,99.90
2019-05-29T01:57:35.743Z,99.90
2019-05-29T02:00:07.003Z,99.90
2019-05-29T02:02:35.900Z,99.90
2019-05-29T02:05:06.640Z,99.90
2019-05-29T02:07:35.561Z,99.90
2019-05-29T02:10:06.904Z,99.90
2019-05-29T02:12:35.822Z,99.90
2019-05-29T02:15:23.026Z,99.90
2019-05-29T02:17:39.780Z,99.90
2019-05-29T02:20:09.841Z,99.90
2019-05-29T02:22:38.740Z,99.90
2019-05-29T02:25:08.440Z,99.90
2019-05-29T02:27:37.380Z,99.90
2019-05-29T02:30:08.367Z,99.90
2019-05-29T02:32:37.466Z,99.90
2019-05-29T02:35:07.563Z,99.90
2019-05-29T02:37:36.523Z,99.90
2019-05-29T02:40:07.453Z,99.90
2019-05-29T02:42:36.603Z,99.90
2019-05-29T02:45:08.831Z,99.90
2019-05-29T02:47:37.780Z,99.90
2019-05-29T02:50:09.661Z,99.90
2019-05-29T02:52:38.621Z,99.90
2019-05-29T02:55:08.510Z,99.90
2019-05-29T02:57:37.461Z,99.90
2019-05-29T03:00:08.206Z,99.90
2019-05-29T03:02:37.201Z,99.90
2019-05-29T03:05:09.380Z,99.90
2019-05-29T03:07:38.320Z,99.90
2019-05-29T03:10:08.724Z,99.90
2019-05-29T03:12:38.160Z,99.90
2019-05-29T03:15:08.560Z,99.90
2019-05-29T03:17:37.440Z,99.90
2019-05-29T03:20:09.521Z,99.90
2019-05-29T03:22:38.453Z,99.90
2019-05-29T03:25:10.163Z,99.90
2019-05-29T03:27:39.110Z,99.90
2019-05-29T03:30:08.734Z,99.90
2019-05-29T03:32:46.703Z,99.90
2019-05-29T03:35:08.524Z,99.90
2019-05-29T03:37:38.823Z,99.90
2019-05-29T03:40:08.263Z,99.90
2019-05-29T03:42:38.739Z,99.90
2019-05-29T03:45:07.881Z,99.90
2019-05-29T03:47:37.247Z,99.90
2019-05-29T03:50:07.821Z,99.90
2019-05-29T03:52:38.617Z,99.90
2019-05-29T03:55:10.347Z,99.90
2019-05-29T03:57:39.300Z,99.90
2019-05-29T04:00:08.581Z,99.90
2019-05-29T04:02:38.281Z,99.90
2019-05-29T04:05:08.021Z,99.90
2019-05-29T04:07:38.085Z,99.90
2019-05-29T04:10:08.161Z,99.90
2019-05-29T04:12:38.084Z,99.90
2019-05-29T04:15:07.764Z,99.90
2019-05-29T04:17:38.485Z,99.90
2019-05-29T04:20:07.801Z,99.90
2019-05-29T04:22:42.862Z,99.90
2019-05-29T04:25:12.263Z,99.90
2019-05-29T04:27:42.901Z,99.90
2019-05-29T04:30:12.586Z,99.90
2019-05-29T04:32:41.512Z,99.90
2019-05-29T04:35:10.542Z,99.90
2019-05-29T04:37:40.055Z,99.90
2019-05-29T04:40:10.164Z,99.90
2019-05-29T04:42:40.077Z,99.90
2019-05-29T04:45:10.068Z,99.90
2019-05-29T04:47:39.730Z,99.90
2019-05-29T04:50:09.374Z,99.90
2019-05-29T04:52:39.885Z,99.90
2019-05-29T04:55:08.982Z,99.90
2019-05-29T04:57:39.130Z,99.90
2019-05-29T05:00:08.440Z,99.90
2019-05-29T05:02:37.407Z,99.90
2019-05-29T05:05:09.560Z,99.90
2019-05-29T05:07:39.498Z,99.90
2019-05-29T05:10:10.021Z,99.90
2019-05-29T05:12:40.597Z,99.90
2019-05-29T05:15:10.668Z,99.90
2019-05-29T05:17:40.165Z,99.90
2019-05-29T05:20:09.501Z,99.90
2019-05-29T05:22:38.460Z,99.90
2019-05-29T05:25:07.466Z,99.90
2019-05-29T05:27:36.566Z,99.90
2019-05-29T05:30:09.168Z,99.90
2019-05-29T05:32:38.754Z,99.90
2019-05-29T05:35:07.941Z,99.90
2019-05-29T05:37:37.036Z,99.90
2019-05-29T05:40:07.482Z,99.90
2019-05-29T05:42:37.124Z,99.90
2019-05-29T05:45:07.709Z,99.90
2019-05-29T05:47:50.418Z,99.90
2019-05-29T05:50:08.414Z,99.90
2019-05-29T05:52:37.532Z,99.90
2019-05-29T05:55:07.481Z,99.90
2019-05-29T05:57:37.656Z,99.90
2019-05-29T06:00:08.921Z,99.90
2019-05-29T06:02:38.205Z,99.90
2019-05-29T06:05:07.880Z,99.90
2019-05-29T06:07:38.118Z,99.90
2019-05-29T06:10:07.869Z,99.90
2019-05-29T06:12:36.790Z,99.90
2019-05-29T06:15:08.820Z,99.90
2019-05-29T06:17:38.774Z,99.90
2019-05-29T06:20:09.404Z,99.90
2019-05-29T06:22:39.088Z,99.90
2019-05-29T06:25:08.496Z,99.90
2019-05-29T06:27:37.460Z,99.90
2019-05-29T06:30:08.507Z,99.90
2019-05-29T06:32:37.460Z,99.90
2019-05-29T06:35:07.061Z,99.90
2019-05-29T06:37:35.980Z,99.90
2019-05-29T06:40:07.013Z,99.90
2019-05-29T06:42:36.023Z,99.90
2019-05-29T06:45:07.121Z,99.90
2019-05-29T06:47:36.552Z,99.90
2019-05-29T06:50:06.821Z,99.90
2019-05-29T06:52:37.393Z,99.90
2019-05-29T06:55:07.922Z,99.90
2019-05-29T06:57:38.096Z,99.90
2019-05-29T07:00:09.641Z,99.90
2019-05-29T07:02:38.636Z,99.90
2019-05-29T07:05:07.641Z,99.90
2019-05-29T07:07:36.900Z,99.90
2019-05-29T07:10:07.461Z,99.90
2019-05-29T07:12:36.453Z,99.90
2019-05-29T07:15:09.820Z,99.90
2019-05-29T07:17:38.695Z,99.90
2019-05-29T07:20:08.583Z,99.90
2019-05-29T07:22:38.743Z,99.90
2019-05-29T07:25:08.021Z,99.90
2019-05-29T07:27:36.942Z,99.90
2019-05-29T07:30:07.662Z,99.90
2019-05-29T07:32:38.676Z,99.90
2019-05-29T07:35:07.781Z,99.60
2019-05-29T07:37:37.742Z,98.50
2019-05-29T07:40:08.132Z,96.30
2019-05-29T07:42:37.026Z,95.50
2019-05-29T07:45:07.762Z,96.60
2019-05-29T07:47:38.140Z,97.70
2019-05-29T07:50:07.941Z,99.30
2019-05-29T07:52:38.318Z,96.80
2019-05-29T07:55:09.001Z,94.40
2019-05-29T07:57:38.850Z,90.50
2019-05-29T08:00:09.960Z,92.50
2019-05-29T08:02:39.314Z,90.90
2019-05-29T08:05:10.120Z,84.80
2019-05-29T08:07:39.441Z,85.20
2019-05-29T08:10:08.966Z,88.60
2019-05-29T08:12:41.714Z,91.40
2019-05-29T08:15:08.441Z,92.10
2019-05-29T08:17:37.340Z,91.90
2019-05-29T08:20:08.004Z,92.00
2019-05-29T08:22:37.123Z,95.50
2019-05-29T08:25:06.665Z,94.60
2019-05-29T08:27:35.583Z,96.90
2019-05-29T08:30:10.161Z,94.90
2019-05-29T08:32:39.102Z,90.20
2019-05-29T08:35:09.040Z,90.40
2019-05-29T08:37:37.973Z,89.60
2019-05-29T08:40:08.614Z,84.30
2019-05-29T08:42:37.524Z,70.40
2019-05-29T08:45:09.755Z,69.50
2019-05-29T08:47:38.640Z,69.30
2019-05-29T08:50:18.175Z,63.80
2019-05-29T08:52:38.342Z,60.00
2019-05-29T08:55:07.521Z,60.00
2019-05-29T08:57:36.441Z,60.00
2019-05-29T09:00:08.020Z,61.00
2019-05-29T09:02:36.921Z,59.30
2019-05-29T09:05:07.380Z,63.20
2019-05-29T09:07:36.181Z,59.40
2019-05-29T09:10:10.004Z,59.60
2019-05-29T09:12:38.914Z,58.80
2019-05-29T09:15:09.726Z,57.70
2019-05-29T09:17:38.881Z,58.60
2019-05-29T09:20:25.406Z,57.60
2019-05-29T09:22:39.245Z,55.90
2019-05-29T09:25:09.102Z,57.30
2019-05-29T09:27:38.000Z,54.70
2019-05-29T09:30:08.145Z,56.50
2019-05-29T09:32:49.607Z,55.50
2019-05-29T09:35:07.783Z,54.10
2019-05-29T09:37:36.680Z,53.80
2019-05-29T09:40:08.521Z,54.90
2019-05-29T09:42:37.500Z,53.60
2019-05-29T09:45:07.503Z,54.40
2019-05-29T09:47:36.483Z,52.50
2019-05-29T09:50:08.400Z,53.00
2019-05-29T09:52:37.429Z,51.50
2019-05-29T09:55:07.181Z,51.20
2019-05-29T09:57:36.143Z,51.30
2019-05-29T10:00:08.003Z,52.90
2019-05-29T10:02:36.960Z,52.60
2019-05-29T10:05:09.301Z,52.50
2019-05-29T10:07:38.940Z,51.00
2019-05-29T10:10:13.942Z,50.90
2019-05-29T10:12:42.881Z,50.30
2019-05-29T10:15:12.881Z,52.40
2019-05-29T10:17:41.821Z,50.60
2019-05-29T10:20:13.940Z,50.10
2019-05-29T10:22:42.906Z,51.50
2019-05-29T10:25:12.726Z,51.30
2019-05-29T10:27:41.655Z,52.80
2019-05-29T10:30:12.862Z,52.30
2019-05-29T10:32:42.693Z,51.50
2019-05-29T10:35:12.321Z,51.00
2019-05-29T10:37:42.593Z,49.70
2019-05-29T10:40:12.184Z,51.40
2019-05-29T10:42:41.141Z,48.40
2019-05-29T10:45:10.443Z,53.20
2019-05-29T10:47:39.409Z,52.00
2019-05-29T10:50:09.905Z,54.40
2019-05-29T10:52:38.942Z,54.60
2019-05-29T10:55:08.601Z,55.50
2019-05-29T10:57:37.561Z,57.80
2019-05-29T11:00:07.901Z,60.80
2019-05-29T11:02:36.921Z,63.10
2019-05-29T11:05:07.924Z,62.20
2019-05-29T11:07:36.965Z,60.10
2019-05-29T11:10:08.361Z,62.30
2019-05-29T11:12:39.466Z,64.20
2019-05-29T11:15:20.962Z,62.30
2019-05-29T11:17:38.923Z,65.10
2019-05-29T11:20:08.822Z,64.10
2019-05-29T11:22:37.881Z,66.80
2019-05-29T11:25:21.462Z,70.30
2019-05-29T11:27:39.361Z,70.30
2019-05-29T11:30:10.033Z,69.00
2019-05-29T11:32:39.301Z,68.60
2019-05-29T11:35:08.301Z,69.60
2019-05-29T11:37:37.233Z,70.80
2019-05-29T11:40:07.137Z,70.80
2019-05-29T11:42:36.121Z,70.40
2019-05-29T11:45:09.682Z,68.50
2019-05-29T11:47:38.622Z,70.00
2019-05-29T11:50:19.037Z,74.30
2019-05-29T11:52:43.420Z,74.70
2019-05-29T11:55:12.247Z,74.90
2019-05-29T11:57:41.401Z,74.00
2019-05-29T12:00:19.767Z,71.10
2019-05-29T12:02:43.446Z,73.60
2019-05-29T12:05:14.460Z,75.20
2019-05-29T12:07:43.402Z,72.40
2019-05-29T12:10:13.983Z,77.70
2019-05-29T12:12:43.101Z,82.20
2019-05-29T12:15:15.930Z,79.00
2019-05-29T12:17:43.166Z,81.80
2019-05-29T12:20:27.207Z,78.30
2019-05-29T12:23:07.303Z,72.50
2019-05-29T12:25:14.562Z,83.10
2019-05-29T12:27:43.523Z,74.50
2019-05-29T12:30:13.182Z,79.40
2019-05-29T12:32:42.123Z,79.40
2019-05-29T12:35:11.740Z,81.80
2019-05-29T12:37:40.613Z,76.50
2019-05-29T12:40:11.222Z,75.10
2019-05-29T12:42:44.511Z,77.80
2019-05-29T12:45:13.402Z,72.60
2019-05-29T12:47:42.380Z,77.80
2019-05-29T12:50:16.423Z,77.10
2019-05-29T12:52:45.361Z,72.60
2019-05-29T12:55:14.744Z,78.30
2019-05-29T12:57:43.761Z,76.70
2019-05-29T13:00:14.681Z,82.00
2019-05-29T13:02:43.728Z,79.40
2019-05-29T13:05:20.129Z,84.40
2019-05-29T13:07:45.317Z,76.30
2019-05-29T13:10:29.360Z,75.60
2019-05-29T13:12:45.707Z,74.70
2019-05-29T13:15:15.700Z,80.20
2019-05-29T13:17:44.661Z,75.20
2019-05-29T13:20:21.655Z,75.80
2019-05-29T13:22:44.778Z,75.00
2019-05-29T13:25:14.084Z,69.50
2019-05-29T13:27:43.054Z,68.30
2019-05-29T13:30:13.942Z,69.00
2019-05-29T13:32:43.211Z,69.40
2019-05-29T13:35:13.061Z,71.30
2019-05-29T13:37:42.008Z,68.60
2019-05-29T13:40:11.221Z,68.90
2019-05-29T13:42:40.169Z,69.70
2019-05-29T13:45:17.758Z,66.20
2019-05-29T13:47:41.902Z,69.00
2019-05-29T13:50:12.486Z,67.60
2019-05-29T13:52:42.056Z,70.00
2019-05-29T13:55:11.480Z,65.90
2019-05-29T13:57:40.435Z,68.00
2019-05-29T14:02:44.172Z,71.40
2019-05-29T14:05:14.372Z,69.10
2019-05-29T14:07:43.262Z,67.50
2019-05-29T14:10:12.622Z,68.80
2019-05-29T14:12:41.542Z,70.30
2019-05-29T14:15:12.436Z,69.20
2019-05-29T14:17:41.602Z,67.70
2019-05-29T14:20:11.248Z,68.80
2019-05-29T14:22:40.140Z,68.50
2019-05-29T14:25:11.529Z,69.10
2019-05-29T14:27:40.703Z,69.60
2019-05-29T14:30:11.181Z,68.60
2019-05-29T14:32:40.252Z,67.40
2019-05-29T14:35:11.069Z,67.30
2019-05-29T14:37:40.204Z,68.80
2019-05-29T14:40:09.881Z,71.10
2019-05-29T14:42:38.941Z,68.40
2019-05-29T14:45:10.373Z,66.00
2019-05-29T14:47:39.627Z,70.60
2019-05-29T14:50:09.128Z,66.70
2019-05-29T14:52:38.543Z,66.10
2019-05-29T14:55:11.413Z,66.40
2019-05-29T14:57:39.569Z,64.10
2019-05-29T15:00:21.067Z,62.20
2019-05-29T15:02:41.261Z,61.80
2019-05-29T15:05:11.727Z,64.30
2019-05-29T15:07:41.301Z,62.10
2019-05-29T15:10:24.095Z,63.50
2019-05-29T15:12:42.221Z,63.90
2019-05-29T15:15:14.197Z,63.60
2019-05-29T15:17:42.577Z,63.40
2019-05-29T15:20:16.144Z,66.60
2019-05-29T15:22:43.942Z,65.30
2019-05-29T15:25:21.827Z,65.10
2019-05-29T15:27:44.040Z,62.70
2019-05-29T15:30:19.756Z,63.80
2019-05-29T15:32:44.156Z,64.10
2019-05-29T15:35:16.704Z,62.80
2019-05-29T15:37:44.060Z,62.70
2019-05-29T15:40:14.763Z,61.40
2019-05-29T15:42:43.912Z,63.20
2019-05-29T15:45:14.147Z,64.40
2019-05-29T15:47:43.241Z,64.50
2019-05-29T15:50:13.626Z,62.40
2019-05-29T15:52:43.282Z,62.30
2019-05-29T15:55:29.543Z,60.50
2019-05-29T15:57:44.023Z,61.60
2019-05-29T16:00:15.611Z,61.80
2019-05-29T16:02:48.317Z,63.20
2019-05-29T16:05:17.101Z,63.20
2019-05-29T16:07:46.186Z,64.10
2019-05-29T16:10:18.595Z,64.60
2019-05-29T16:12:46.041Z,66.30
2019-05-29T16:15:17.430Z,64.90
2019-05-29T16:17:46.666Z,68.60
2019-05-29T16:20:16.448Z,62.90
2019-05-29T16:22:45.461Z,67.70
2019-05-29T16:25:15.059Z,69.70
2019-05-29T16:27:44.042Z,70.40
2019-05-29T16:30:15.424Z,66.20
2019-05-29T16:32:44.581Z,70.50
2019-05-29T16:35:15.240Z,70.20
2019-05-29T16:37:44.120Z,68.50
2019-05-29T16:40:16.143Z,71.10
2019-05-29T16:42:45.400Z,77.00
2019-05-29T16:45:16.316Z,77.20
2019-05-29T16:47:45.460Z,70.40
2019-05-29T16:50:16.679Z,69.40
2019-05-29T16:52:45.840Z,71.00
2019-05-29T16:55:17.204Z,70.50
2019-05-29T16:57:46.280Z,70.70
2019-05-29T17:00:15.729Z,68.80
2019-05-29T17:02:44.840Z,68.90
2019-05-29T17:05:15.651Z,68.80
2019-05-29T17:07:44.891Z,69.30
2019-05-29T17:10:14.419Z,68.50
2019-05-29T17:12:43.448Z,68.10
2019-05-29T17:15:15.141Z,67.60
2019-05-29T17:17:44.680Z,68.80
2019-05-29T17:20:14.691Z,70.20
2019-05-29T17:22:43.721Z,69.30
2019-05-29T17:25:12.743Z,69.60
2019-05-29T17:27:41.700Z,70.00
2019-05-29T17:30:10.682Z,69.40
2019-05-29T17:32:39.742Z,67.60
2019-05-29T17:35:09.277Z,68.00
2019-05-29T17:37:38.542Z,71.10
2019-05-29T17:40:08.722Z,72.30
2019-05-29T17:42:37.700Z,73.10
2019-05-29T17:45:09.823Z,74.20
2019-05-29T17:47:39.561Z,80.60
2019-05-29T17:50:09.465Z,74.30
2019-05-29T17:52:38.520Z,74.90
2019-05-29T17:55:13.260Z,75.60
2019-05-29T17:57:42.200Z,75.60
2019-05-29T18:00:20.671Z,77.20
2019-05-29T18:02:52.385Z,77.90
2019-05-29T18:05:20.499Z,81.30
2019-05-29T18:07:49.521Z,79.20
2019-05-29T18:10:19.368Z,82.70
2019-05-29T18:12:49.161Z,89.00
2019-05-29T18:15:19.557Z,90.50
2019-05-29T18:17:48.720Z,89.70
2019-05-29T18:20:17.950Z,90.10
2019-05-29T18:22:47.120Z,92.00
2019-05-29T18:25:18.056Z,94.00
2019-05-29T18:27:47.183Z,95.50
2019-05-29T18:30:16.405Z,95.20
2019-05-29T18:32:45.320Z,93.80
2019-05-29T18:35:14.327Z,93.80
2019-05-29T18:37:43.263Z,95.00
2019-05-29T18:40:13.022Z,95.10
2019-05-29T18:42:42.041Z,96.20
2019-05-29T18:45:20.167Z,94.00
2019-05-29T18:47:42.260Z,94.80
2019-05-29T18:50:12.161Z,95.10
2019-05-29T18:52:41.083Z,94.70
2019-05-29T18:55:10.421Z,96.00
2019-05-29T18:57:39.360Z,96.10
2019-05-29T19:00:10.081Z,97.20
2019-05-29T19:02:39.105Z,96.00
2019-05-29T19:05:08.894Z,96.80
2019-05-29T19:07:37.842Z,96.70
2019-05-29T19:10:08.140Z,97.40
2019-05-29T19:12:37.420Z,97.40
2019-05-29T19:15:08.121Z,98.30
2019-05-29T19:17:37.061Z,99.50
2019-05-29T19:20:06.863Z,99.90
2019-05-29T19:22:35.802Z,99.90
2019-05-29T19:25:06.523Z,99.90
2019-05-29T19:27:41.327Z,99.90
2019-05-29T19:30:09.440Z,99.90
2019-05-29T19:32:38.381Z,99.90
2019-05-29T19:35:09.280Z,99.90
2019-05-29T19:37:38.220Z,99.90
2019-05-29T19:40:08.967Z,99.90
2019-05-29T19:42:37.971Z,99.90
2019-05-29T19:45:08.752Z,99.90
2019-05-29T19:47:37.681Z,99.90
2019-05-29T19:50:28.755Z,99.90
2019-05-29T19:52:57.860Z,99.90
2019-05-29T19:55:30.458Z,99.90
2019-05-29T19:57:57.680Z,99.90
2019-05-29T20:00:26.597Z,99.90
2019-05-29T20:02:55.582Z,99.90
2019-05-29T20:05:24.482Z,99.90
2019-05-29T20:07:53.460Z,99.90
2019-05-29T20:10:22.360Z,99.90
2019-05-29T20:12:57.040Z,99.90
2019-05-29T20:15:25.898Z,99.90
2019-05-29T20:17:54.859Z,99.90
2019-05-29T20:20:23.759Z,99.90
2019-05-29T20:22:52.941Z,99.90
2019-05-29T20:25:21.812Z,99.90
2019-05-29T20:28:03.538Z,99.90
2019-05-29T20:30:34.354Z,99.90
2019-05-29T20:33:03.445Z,99.90
2019-05-29T20:35:32.765Z,99.90
2019-05-29T20:38:01.761Z,99.90
2019-05-29T20:40:31.068Z,99.90
2019-05-29T20:43:00.140Z,99.90
2019-05-29T20:45:29.061Z,99.90
2019-05-29T20:47:58.081Z,99.90
2019-05-29T20:50:26.981Z,99.90
2019-05-29T20:52:55.920Z,99.90
2019-05-29T20:55:24.861Z,99.90
2019-05-29T20:57:53.760Z,99.90
2019-05-29T21:00:23.403Z,99.90
2019-05-29T21:02:52.321Z,99.90
2019-05-29T21:05:21.265Z,99.90
2019-05-29T21:07:50.181Z,99.90
2019-05-29T21:10:19.545Z,99.90
2019-05-29T21:12:48.442Z,99.90
2019-05-29T21:15:17.622Z,99.90
2019-05-29T21:17:46.545Z,99.90
2019-05-29T21:20:15.522Z,99.90
2019-05-29T21:22:45.401Z,99.90
2019-05-29T21:25:18.878Z,99.90
2019-05-29T21:27:49.140Z,99.90
2019-05-29T21:30:19.464Z,99.90
2019-05-29T21:32:48.381Z,99.90
2019-05-29T21:35:20.442Z,99.90
2019-05-29T21:37:49.340Z,99.90
2019-05-29T21:40:18.383Z,99.90
2019-05-29T21:42:47.281Z,99.90
2019-05-29T21:45:16.821Z,99.90
2019-05-29T21:47:46.982Z,99.90
2019-05-29T21:50:16.782Z,99.90
2019-05-29T21:52:45.739Z,99.90
2019-05-29T21:55:14.760Z,99.90
2019-05-29T21:57:46.608Z,99.90
2019-05-29T22:00:16.619Z,99.90
2019-05-29T22:02:46.407Z,99.90
2019-05-29T22:05:15.960Z,99.90
2019-05-29T22:07:44.933Z,99.90
2019-05-29T22:10:14.900Z,99.90
2019-05-29T22:13:04.921Z,99.90
2019-05-29T22:15:33.881Z,99.90
2019-05-29T22:18:02.700Z,99.90
2019-05-29T22:20:31.662Z,99.90
2019-05-29T22:23:02.762Z,99.90
2019-05-29T22:25:34.285Z,99.90
2019-05-29T22:28:01.784Z,99.90
2019-05-29T22:30:30.661Z,99.90
2019-05-29T22:32:59.676Z,99.90
2019-05-29T22:35:28.620Z,99.90
2019-05-29T22:37:57.763Z,99.90
2019-05-29T22:40:26.883Z,99.90
2019-05-29T22:42:55.781Z,99.90
2019-05-29T22:45:24.701Z,99.90
2019-05-29T22:47:53.751Z,99.90
2019-05-29T22:50:22.854Z,99.90
2019-05-29T22:52:51.842Z,99.90
2019-05-29T22:59:06.314Z,99.90
2019-05-29T23:05:05.817Z,99.90
2019-05-29T23:07:34.682Z,99.90
2019-05-29T23:10:05.158Z,99.90
2019-05-29T23:12:34.023Z,99.90
2019-05-29T23:15:03.089Z,99.90
2019-05-29T23:17:31.910Z,99.90
2019-05-29T23:20:00.848Z,99.90
2019-05-29T23:22:29.752Z,99.90
2019-05-29T23:25:00.927Z,99.90
2019-05-29T23:27:29.879Z,99.90
2019-05-29T23:29:59.134Z,99.90
2019-05-29T23:32:28.044Z,99.90
2019-05-29T23:34:57.175Z,99.90
2019-05-29T23:37:26.334Z,99.90
2019-05-29T23:39:55.117Z,99.90
2019-05-29T23:42:23.984Z,99.90
2019-05-29T23:45:28.829Z,99.90
2019-05-29T23:47:57.707Z,99.90
2019-05-29T23:50:26.596Z,99.90
2019-05-29T23:52:55.614Z,99.90
2019-05-29T23:55:24.538Z,99.90
2019-05-29T23:57:53.744Z,99.90
